Time;durP1;ratioP1;P1;durP2;ratioP2;P2;SDS_P1;SDS_P2;PMS_P1;PMS_P2;Temp;Humidity;BMP_temperature;BMP_pressure;BME280_temperature;BME280_humidity;BME280_pressure;Samples;Min_cycle;Max_cycle;Signal;HPM_P1;HPM_P2
2021/12/14 00:01:41;;;;;;;;;;;8.50;99.90;;;;;;5008819;28;19929;-41
2021/12/14 00:04:09;;;;;;;;;;;8.50;99.90;;;;;;5007323;28;20008;-41
2021/12/14 00:06:37;;;;;;;;;;;8.50;99.90;;;;;;4993616;28;19921;-41
2021/12/14 00:09:06;;;;;;;;;;;8.50;99.90;;;;;;4994803;28;19981;-39
2021/12/14 00:11:49;;;;;;;;;;;8.50;99.90;;;;;;5005516;28;20395;-42
2021/12/14 00:15:01;;;;;;;;;;;8.50;99.90;;;;;;5009550;28;20539;-39
2021/12/14 00:17:12;;;;;;;;;;;8.50;99.90;;;;;;4994132;28;19929;-39
2021/12/14 00:19:39;;;;;;;;;;;8.50;99.90;;;;;;5009545;28;20293;-40
2021/12/14 00:22:20;;;;;;;;;;;8.50;99.90;;;;;;5007484;28;19952;-40
2021/12/14 00:24:46;;;;;;;;;;;8.50;99.90;;;;;;4990695;28;20297;-41
2021/12/14 00:27:13;;;;;;;;;;;8.40;99.90;;;;;;4986274;28;19929;-40
2021/12/14 00:29:46;;;;;;;;;;;8.40;99.90;;;;;;4995225;28;20042;-40
2021/12/14 00:32:17;;;;;;;;;;;8.40;99.90;;;;;;4992131;28;19921;-40
2021/12/14 00:34:44;;;;;;;;;;;8.40;99.90;;;;;;4994262;28;19921;-40
2021/12/14 00:37:13;;;;;;;;;;;8.40;99.90;;;;;;4996173;28;19921;-39
2021/12/14 00:39:40;;;;;;;;;;;8.40;99.90;;;;;;5008954;28;19960;-39
2021/12/14 00:42:07;;;;;;;;;;;8.40;99.90;;;;;;4989757;28;19922;-40
2021/12/14 00:44:34;;;;;;;;;;;8.40;99.90;;;;;;5003790;28;19961;-39
2021/12/14 00:47:00;;;;;;;;;;;8.40;99.90;;;;;;4986151;28;19952;-40
2021/12/14 00:49:27;;;;;;;;;;;8.40;99.90;;;;;;5011327;28;20294;-39
2021/12/14 00:51:55;;;;;;;;;;;8.40;99.90;;;;;;5010415;28;20342;-40
2021/12/14 00:54:23;;;;;;;;;;;8.40;99.90;;;;;;4972538;28;19921;-40
2021/12/14 00:56:50;;;;;;;;;;;8.40;99.90;;;;;;5001415;28;19980;-41
2021/12/14 00:59:17;;;;;;;;;;;8.40;99.90;;;;;;5007710;28;19922;-40
2021/12/14 01:01:46;;;;;;;;;;;8.50;99.90;;;;;;5009662;28;20404;-39
2021/12/14 01:04:15;;;;;;;;;;;8.40;99.90;;;;;;5000311;28;20288;-40
2021/12/14 01:06:45;;;;;;;;;;;8.40;99.90;;;;;;5012864;28;19921;-39
2021/12/14 01:09:12;;;;;;;;;;;8.40;99.90;;;;;;5013994;28;19921;-40
2021/12/14 01:11:43;;;;;;;;;;;8.40;99.90;;;;;;5023864;28;19921;-40
2021/12/14 01:14:11;;;;;;;;;;;8.40;99.90;;;;;;5005365;28;19936;-40
2021/12/14 01:16:50;;;;;;;;;;;8.40;99.90;;;;;;5004221;28;20022;-39
2021/12/14 01:19:20;;;;;;;;;;;8.40;99.90;;;;;;5009821;28;19921;-39
2021/12/14 01:22:12;;;;;;;;;;;8.40;99.90;;;;;;5024466;28;19928;-39
2021/12/14 01:25:00;;;;;;;;;;;8.40;99.90;;;;;;5008193;28;20448;-40
2021/12/14 01:27:30;;;;;;;;;;;8.40;99.90;;;;;;5031820;28;19924;-40
2021/12/14 01:30:01;;;;;;;;;;;8.40;99.90;;;;;;5014540;28;19921;-39
2021/12/14 01:32:30;;;;;;;;;;;8.40;99.90;;;;;;5011110;28;19921;-39
2021/12/14 01:34:57;;;;;;;;;;;8.40;99.90;;;;;;5015893;28;19928;-40
2021/12/14 01:37:28;;;;;;;;;;;8.40;99.90;;;;;;5032579;28;19928;-38
2021/12/14 01:40:04;;;;;;;;;;;8.40;99.90;;;;;;5015150;28;19921;-39
2021/12/14 01:42:34;;;;;;;;;;;8.40;99.90;;;;;;5026900;28;19976;-41
2021/12/14 01:45:02;;;;;;;;;;;8.40;99.90;;;;;;5015892;28;19924;-39
2021/12/14 01:47:30;;;;;;;;;;;8.40;99.90;;;;;;5015235;28;19921;-40
2021/12/14 01:49:57;;;;;;;;;;;8.40;99.90;;;;;;5016474;28;19974;-40
2021/12/14 01:52:25;;;;;;;;;;;8.40;99.90;;;;;;5012441;28;20377;-39
2021/12/14 01:55:02;;;;;;;;;;;8.40;99.90;;;;;;5017372;28;20258;-40
2021/12/14 01:57:30;;;;;;;;;;;8.40;99.90;;;;;;5032562;28;20365;-42
2021/12/14 01:59:58;;;;;;;;;;;8.40;99.90;;;;;;5026198;28;19961;-40
2021/12/14 02:02:30;;;;;;;;;;;8.40;99.90;;;;;;5028853;28;20016;-40
2021/12/14 02:04:58;;;;;;;;;;;8.40;99.90;;;;;;5031746;28;19921;-42
2021/12/14 02:07:25;;;;;;;;;;;8.40;99.90;;;;;;5026672;28;20361;-39
2021/12/14 02:09:52;;;;;;;;;;;8.40;99.90;;;;;;5016466;28;19925;-40
2021/12/14 02:12:20;;;;;;;;;;;8.40;99.90;;;;;;5033702;28;19921;-39
2021/12/14 02:14:47;;;;;;;;;;;8.40;99.90;;;;;;5032632;28;19952;-40
2021/12/14 02:17:17;;;;;;;;;;;8.40;99.90;;;;;;5016566;28;19956;-43
2021/12/14 02:19:44;;;;;;;;;;;8.40;99.90;;;;;;5031378;28;20324;-38
2021/12/14 02:22:12;;;;;;;;;;;8.40;99.90;;;;;;5011297;28;19961;-39
2021/12/14 02:24:40;;;;;;;;;;;8.40;99.90;;;;;;5016353;28;20000;-40
2021/12/14 02:27:07;;;;;;;;;;;8.40;99.90;;;;;;5014454;28;19975;-39
2021/12/14 02:29:35;;;;;;;;;;;8.40;99.90;;;;;;5013116;28;19921;-39
2021/12/14 02:32:02;;;;;;;;;;;8.40;99.90;;;;;;5008051;28;19921;-39
2021/12/14 02:34:29;;;;;;;;;;;8.40;99.90;;;;;;5012755;28;21171;-39
2021/12/14 02:36:57;;;;;;;;;;;8.40;99.90;;;;;;5016410;28;19968;-40
2021/12/14 02:39:46;;;;;;;;;;;8.40;99.90;;;;;;5012561;28;19921;-41
2021/12/14 02:42:13;;;;;;;;;;;8.40;99.90;;;;;;5024095;28;20011;-40
2021/12/14 02:44:40;;;;;;;;;;;8.40;99.90;;;;;;5010552;28;19982;-39
2021/12/14 02:47:08;;;;;;;;;;;8.40;99.90;;;;;;5012842;28;20005;-39
2021/12/14 02:49:36;;;;;;;;;;;8.40;99.90;;;;;;5020676;28;19921;-39
2021/12/14 02:52:04;;;;;;;;;;;8.30;99.90;;;;;;5013275;28;19975;-39
2021/12/14 02:54:33;;;;;;;;;;;8.40;99.90;;;;;;5024214;28;19986;-39
2021/12/14 02:57:01;;;;;;;;;;;8.40;99.90;;;;;;5033043;28;19971;-39
2021/12/14 02:59:29;;;;;;;;;;;8.30;99.90;;;;;;5028774;28;19933;-40
2021/12/14 03:01:56;;;;;;;;;;;8.30;99.90;;;;;;5007064;28;19963;-39
2021/12/14 03:04:23;;;;;;;;;;;8.30;99.90;;;;;;5014914;28;20339;-39
2021/12/14 03:06:50;;;;;;;;;;;8.30;99.90;;;;;;5031066;28;20383;-39
2021/12/14 03:09:33;;;;;;;;;;;8.30;99.90;;;;;;5000900;28;19968;-38
2021/12/14 03:12:02;;;;;;;;;;;8.30;99.90;;;;;;5002352;28;19928;-40
2021/12/14 03:14:29;;;;;;;;;;;8.30;99.90;;;;;;5018755;28;19925;-38
2021/12/14 03:16:56;;;;;;;;;;;8.40;99.90;;;;;;5015160;28;19921;-40
2021/12/14 03:19:23;;;;;;;;;;;8.30;99.90;;;;;;5031114;28;19928;-39
2021/12/14 03:21:50;;;;;;;;;;;8.30;99.90;;;;;;5010324;28;19920;-40
2021/12/14 03:24:17;;;;;;;;;;;8.30;99.90;;;;;;5025350;28;19921;-39
2021/12/14 03:26:45;;;;;;;;;;;8.40;99.90;;;;;;5015198;28;19921;-39
2021/12/14 03:29:15;;;;;;;;;;;8.30;99.90;;;;;;5011659;28;19921;-39
2021/12/14 03:31:43;;;;;;;;;;;8.30;99.90;;;;;;5032554;28;19921;-41
2021/12/14 03:34:10;;;;;;;;;;;8.30;99.90;;;;;;5010109;28;19971;-42
2021/12/14 03:36:38;;;;;;;;;;;8.30;99.90;;;;;;5027489;28;20440;-39
2021/12/14 03:39:07;;;;;;;;;;;8.30;99.90;;;;;;5027711;28;20340;-39
2021/12/14 03:41:35;;;;;;;;;;;8.30;99.90;;;;;;5012144;28;20289;-40
2021/12/14 03:44:03;;;;;;;;;;;8.30;99.90;;;;;;5031672;28;20304;-40
2021/12/14 03:46:32;;;;;;;;;;;8.30;99.90;;;;;;5019482;28;20292;-39
2021/12/14 03:48:59;;;;;;;;;;;8.30;99.90;;;;;;5022017;28;19921;-39
2021/12/14 03:51:26;;;;;;;;;;;8.30;99.90;;;;;;5027857;28;19921;-42
2021/12/14 03:53:52;;;;;;;;;;;8.40;99.90;;;;;;5029329;28;20329;-39
2021/12/14 03:56:19;;;;;;;;;;;8.30;99.90;;;;;;5021963;28;20365;-40
2021/12/14 03:58:46;;;;;;;;;;;8.30;99.90;;;;;;5022329;28;19975;-40
2021/12/14 04:01:14;;;;;;;;;;;8.30;99.90;;;;;;5025450;28;19927;-40
2021/12/14 04:03:42;;;;;;;;;;;8.20;99.90;;;;;;5029537;28;19947;-41
2021/12/14 04:06:09;;;;;;;;;;;8.20;99.90;;;;;;5006547;28;20332;-39
2021/12/14 04:08:36;;;;;;;;;;;8.20;99.90;;;;;;5030913;28;21097;-40
2021/12/14 04:11:03;;;;;;;;;;;8.20;99.90;;;;;;5027010;28;19920;-41
2021/12/14 04:13:31;;;;;;;;;;;8.20;99.90;;;;;;5011372;28;19929;-40
2021/12/14 04:15:58;;;;;;;;;;;8.20;99.90;;;;;;5013492;28;19956;-40
2021/12/14 04:18:25;;;;;;;;;;;8.20;99.90;;;;;;5004274;28;19921;-39
2021/12/14 04:20:55;;;;;;;;;;;8.20;99.90;;;;;;5003093;28;19972;-39
2021/12/14 04:23:23;;;;;;;;;;;8.20;99.90;;;;;;5030684;28;19987;-40
2021/12/14 04:25:50;;;;;;;;;;;8.20;99.90;;;;;;5011944;28;19944;-40
2021/12/14 04:28:17;;;;;;;;;;;8.20;99.90;;;;;;5029177;28;19921;-43
2021/12/14 04:30:44;;;;;;;;;;;8.20;99.90;;;;;;5021432;28;19920;-39
2021/12/14 04:33:16;;;;;;;;;;;8.20;99.90;;;;;;5030933;28;19975;-39
2021/12/14 04:35:43;;;;;;;;;;;8.10;99.90;;;;;;5003106;28;19956;-40
2021/12/14 04:38:18;;;;;;;;;;;8.10;99.90;;;;;;5010567;28;20377;-40
2021/12/14 04:51:59;;;;;;;;;;;8.10;99.90;;;;;;4999217;28;19969;-40
2021/12/14 04:54:28;;;;;;;;;;;8.10;99.90;;;;;;5025113;28;19925;-39
2021/12/14 04:56:55;;;;;;;;;;;8.10;99.90;;;;;;5021773;28;19973;-40
2021/12/14 04:59:23;;;;;;;;;;;8.10;99.90;;;;;;5032573;28;19925;-41
2021/12/14 05:01:50;;;;;;;;;;;8.10;99.90;;;;;;5034985;28;19921;-41
2021/12/14 05:04:18;;;;;;;;;;;8.10;99.90;;;;;;5029560;28;19921;-39
2021/12/14 05:06:48;;;;;;;;;;;8.10;99.90;;;;;;5017709;28;19992;-39
2021/12/14 05:09:21;;;;;;;;;;;8.10;99.90;;;;;;5008705;28;19929;-39
2021/12/14 05:11:56;;;;;;;;;;;8.10;99.90;;;;;;5034835;28;19960;-39
2021/12/14 05:14:23;;;;;;;;;;;8.10;99.90;;;;;;5034689;28;19921;-39
2021/12/14 05:16:53;;;;;;;;;;;8.10;99.90;;;;;;5011107;28;19928;-40
2021/12/14 05:19:20;;;;;;;;;;;8.10;99.90;;;;;;5006645;28;19969;-42
2021/12/14 05:21:48;;;;;;;;;;;8.10;99.90;;;;;;5008930;28;19948;-39
2021/12/14 05:24:16;;;;;;;;;;;8.10;99.90;;;;;;5004333;28;20311;-40
2021/12/14 05:26:43;;;;;;;;;;;8.10;99.90;;;;;;5032710;28;20336;-40
2021/12/14 05:29:11;;;;;;;;;;;8.10;99.90;;;;;;5012762;28;20289;-40
2021/12/14 05:31:42;;;;;;;;;;;8.10;99.90;;;;;;5030163;28;19921;-39
2021/12/14 05:34:09;;;;;;;;;;;8.10;99.90;;;;;;5012565;28;19936;-41
2021/12/14 05:36:35;;;;;;;;;;;8.10;99.90;;;;;;5021867;28;19982;-40
2021/12/14 05:39:21;;;;;;;;;;;8.00;99.90;;;;;;5012979;28;19929;-40
2021/12/14 05:44:33;;;;;;;;;;;8.00;99.90;;;;;;5010715;28;19921;-41
2021/12/14 05:47:01;;;;;;;;;;;8.00;99.90;;;;;;5028036;28;19972;-40
2021/12/14 05:49:28;;;;;;;;;;;8.00;99.90;;;;;;5033938;28;19925;-39
2021/12/14 05:51:55;;;;;;;;;;;8.00;99.90;;;;;;5034771;28;19975;-40
2021/12/14 05:54:22;;;;;;;;;;;8.10;99.90;;;;;;5015367;28;19971;-40
2021/12/14 05:56:49;;;;;;;;;;;8.00;99.90;;;;;;5026755;28;19920;-39
2021/12/14 05:59:17;;;;;;;;;;;8.10;99.90;;;;;;5024386;28;19964;-40
2021/12/14 06:01:45;;;;;;;;;;;8.10;99.90;;;;;;5026677;28;19975;-42
2021/12/14 06:04:12;;;;;;;;;;;8.10;99.90;;;;;;5023026;28;19929;-40
2021/12/14 06:06:41;;;;;;;;;;;8.10;99.90;;;;;;5031637;28;19968;-41
2021/12/14 06:09:08;;;;;;;;;;;8.10;99.90;;;;;;5012917;28;19921;-39
2021/12/14 06:11:35;;;;;;;;;;;8.10;99.90;;;;;;5025200;28;19921;-43
2021/12/14 06:14:02;;;;;;;;;;;8.10;99.90;;;;;;5008649;28;19921;-40
2021/12/14 06:16:29;;;;;;;;;;;8.10;99.90;;;;;;5028000;28;20392;-39
2021/12/14 06:19:09;;;;;;;;;;;8.00;99.90;;;;;;5015023;28;19921;-38
2021/12/14 06:21:36;;;;;;;;;;;8.10;99.90;;;;;;5015815;28;20361;-39
2021/12/14 06:24:03;;;;;;;;;;;8.10;99.90;;;;;;5014389;28;19968;-38
2021/12/14 06:26:36;;;;;;;;;;;8.10;99.90;;;;;;5027710;28;19968;-43
2021/12/14 06:29:04;;;;;;;;;;;8.10;99.90;;;;;;5008559;28;19976;-38
2021/12/14 06:31:31;;;;;;;;;;;8.10;99.90;;;;;;5028031;28;20391;-40
2021/12/14 06:33:59;;;;;;;;;;;8.10;99.90;;;;;;5032479;28;19921;-42
2021/12/14 06:36:36;;;;;;;;;;;8.20;99.90;;;;;;5026665;28;19922;-39
2021/12/14 06:39:04;;;;;;;;;;;8.10;99.90;;;;;;5025507;28;19921;-39
2021/12/14 06:41:31;;;;;;;;;;;8.20;99.90;;;;;;5032616;28;20365;-41
2021/12/14 06:43:59;;;;;;;;;;;8.20;99.90;;;;;;5015301;28;20289;-40
2021/12/14 06:46:26;;;;;;;;;;;8.10;99.90;;;;;;5032551;28;20334;-40
2021/12/14 06:48:53;;;;;;;;;;;8.10;99.90;;;;;;5009642;28;19921;-39
2021/12/14 06:51:22;;;;;;;;;;;8.10;99.90;;;;;;5015118;28;19920;-40
2021/12/14 06:53:50;;;;;;;;;;;8.10;99.90;;;;;;5031863;28;19921;-40
2021/12/14 06:56:17;;;;;;;;;;;8.30;99.90;;;;;;5012801;28;19960;-40
2021/12/14 06:58:47;;;;;;;;;;;8.10;99.90;;;;;;5010541;28;19929;-39
2021/12/14 07:01:14;;;;;;;;;;;8.10;99.90;;;;;;4996532;28;19925;-42
2021/12/14 07:03:42;;;;;;;;;;;8.20;99.90;;;;;;5001373;28;19920;-40
2021/12/14 07:06:09;;;;;;;;;;;8.20;99.90;;;;;;5002897;28;19925;-40
2021/12/14 07:08:37;;;;;;;;;;;8.10;99.90;;;;;;5000217;28;20408;-40
2021/12/14 07:11:03;;;;;;;;;;;8.20;99.90;;;;;;5012106;28;19921;-40
2021/12/14 07:13:36;;;;;;;;;;;8.20;99.90;;;;;;5003688;28;20396;-40
2021/12/14 07:16:03;;;;;;;;;;;8.20;99.90;;;;;;5009470;28;19929;-39
2021/12/14 07:18:31;;;;;;;;;;;8.20;99.90;;;;;;5007056;28;19971;-40
2021/12/14 07:20:58;;;;;;;;;;;8.20;99.90;;;;;;5003955;28;19928;-38
2021/12/14 07:23:26;;;;;;;;;;;8.20;99.90;;;;;;4995903;28;19929;-40
2021/12/14 07:25:55;;;;;;;;;;;8.20;99.90;;;;;;5004653;28;20400;-47
2021/12/14 07:28:22;;;;;;;;;;;8.20;99.90;;;;;;5010844;28;20012;-40
2021/12/14 07:30:50;;;;;;;;;;;8.20;99.90;;;;;;5003979;28;20014;-40
2021/12/14 07:33:17;;;;;;;;;;;8.20;99.90;;;;;;4980537;28;20404;-41
2021/12/14 07:35:49;;;;;;;;;;;8.30;99.90;;;;;;5007110;28;19980;-39
2021/12/14 07:38:26;;;;;;;;;;;8.20;99.90;;;;;;4991625;28;19956;-40
2021/12/14 07:40:55;;;;;;;;;;;8.20;99.90;;;;;;4991843;28;20012;-39
2021/12/14 07:43:23;;;;;;;;;;;8.20;99.90;;;;;;4993778;28;19921;-39
2021/12/14 07:45:51;;;;;;;;;;;8.20;99.90;;;;;;5012334;28;20262;-40
2021/12/14 07:48:18;;;;;;;;;;;8.20;99.90;;;;;;5010560;28;20451;-39
2021/12/14 07:50:46;;;;;;;;;;;8.20;99.90;;;;;;5012478;28;19980;-42
2021/12/14 07:53:21;;;;;;;;;;;8.20;99.90;;;;;;4994775;28;19999;-40
2021/12/14 07:55:48;;;;;;;;;;;8.20;99.90;;;;;;5013053;28;19965;-40
2021/12/14 07:58:17;;;;;;;;;;;8.20;99.90;;;;;;5011552;28;19929;-39
2021/12/14 08:00:45;;;;;;;;;;;8.30;99.90;;;;;;5005593;28;19929;-39
2021/12/14 08:03:12;;;;;;;;;;;8.20;99.90;;;;;;4991253;28;20005;-40
2021/12/14 08:05:40;;;;;;;;;;;8.20;99.90;;;;;;5007291;28;19960;-39
2021/12/14 08:08:13;;;;;;;;;;;8.30;99.90;;;;;;5011475;28;19972;-40
2021/12/14 08:10:41;;;;;;;;;;;8.30;99.90;;;;;;5012224;28;20329;-39
2021/12/14 08:13:09;;;;;;;;;;;8.20;99.90;;;;;;5011687;28;19975;-40
2021/12/14 08:15:38;;;;;;;;;;;8.30;99.90;;;;;;4994811;28;19921;-39
2021/12/14 08:18:06;;;;;;;;;;;8.30;99.90;;;;;;5012058;28;19922;-39
2021/12/14 08:20:33;;;;;;;;;;;8.30;99.90;;;;;;5012385;28;19973;-42
2021/12/14 08:23:11;;;;;;;;;;;8.30;99.90;;;;;;5004330;28;19969;-40
2021/12/14 08:25:39;;;;;;;;;;;8.30;99.90;;;;;;5010155;28;19964;-42
2021/12/14 08:28:06;;;;;;;;;;;8.30;99.90;;;;;;4981266;28;19922;-40
2021/12/14 08:30:34;;;;;;;;;;;8.30;99.90;;;;;;4983770;28;20351;-40
2021/12/14 08:33:03;;;;;;;;;;;8.30;99.90;;;;;;4993677;28;20382;-39
2021/12/14 08:35:30;;;;;;;;;;;8.30;99.90;;;;;;5008102;28;20016;-39
2021/12/14 08:37:59;;;;;;;;;;;8.30;99.90;;;;;;5008341;28;19925;-39
2021/12/14 08:40:26;;;;;;;;;;;8.40;99.90;;;;;;5015676;28;19936;-38
2021/12/14 08:43:02;;;;;;;;;;;8.40;99.90;;;;;;4998328;28;19925;-39
2021/12/14 08:45:30;;;;;;;;;;;8.30;99.90;;;;;;5007971;28;21597;-39
2021/12/14 08:48:05;;;;;;;;;;;8.40;99.90;;;;;;4996772;28;19925;-39
2021/12/14 08:50:35;;;;;;;;;;;8.40;99.90;;;;;;4998154;28;20320;-39
2021/12/14 08:53:01;;;;;;;;;;;8.40;99.90;;;;;;4998155;28;19921;-39
2021/12/14 08:55:31;;;;;;;;;;;8.40;99.90;;;;;;4993401;28;20075;-39
2021/12/14 08:57:58;;;;;;;;;;;8.40;99.90;;;;;;5009674;28;19932;-40
2021/12/14 09:00:26;;;;;;;;;;;8.40;99.90;;;;;;5014095;28;19984;-40
2021/12/14 09:02:58;;;;;;;;;;;8.40;99.90;;;;;;5007758;28;19926;-39
2021/12/14 09:05:26;;;;;;;;;;;8.40;99.90;;;;;;5007762;28;19922;-39
2021/12/14 09:07:55;;;;;;;;;;;8.60;99.90;;;;;;5015279;28;19922;-39
2021/12/14 09:10:23;;;;;;;;;;;8.40;99.90;;;;;;5014994;28;20399;-43
2021/12/14 09:12:50;;;;;;;;;;;8.50;99.90;;;;;;5015029;28;19925;-39
2021/12/14 09:15:19;;;;;;;;;;;8.40;99.90;;;;;;4997871;28;19925;-39
2021/12/14 09:17:46;;;;;;;;;;;8.50;99.90;;;;;;5015315;28;19922;-39
2021/12/14 09:20:16;;;;;;;;;;;8.40;99.90;;;;;;5014025;28;19979;-39
2021/12/14 09:22:43;;;;;;;;;;;8.50;99.90;;;;;;4997651;28;20384;-39
2021/12/14 09:25:12;;;;;;;;;;;8.50;99.90;;;;;;4989783;28;19988;-39
2021/12/14 09:27:39;;;;;;;;;;;8.50;99.90;;;;;;5006469;28;20067;-39
2021/12/14 09:30:06;;;;;;;;;;;8.50;99.90;;;;;;5010628;28;19932;-41
2021/12/14 09:32:34;;;;;;;;;;;8.50;99.90;;;;;;4989911;28;19925;-40
2021/12/14 09:35:01;;;;;;;;;;;8.50;99.90;;;;;;5014474;28;19980;-39
2021/12/14 09:37:28;;;;;;;;;;;8.50;99.90;;;;;;5013499;28;19921;-40
2021/12/14 09:39:56;;;;;;;;;;;8.50;99.90;;;;;;4991689;28;19925;-39
2021/12/14 09:42:26;;;;;;;;;;;8.60;99.90;;;;;;4996916;28;19921;-40
2021/12/14 09:44:53;;;;;;;;;;;8.60;99.90;;;;;;5006817;28;19925;-39
2021/12/14 09:47:20;;;;;;;;;;;8.60;99.90;;;;;;4996872;28;19925;-40
2021/12/14 09:49:48;;;;;;;;;;;8.70;99.90;;;;;;4996538;28;19921;-40
2021/12/14 09:52:15;;;;;;;;;;;8.60;99.90;;;;;;4996753;28;19968;-39
2021/12/14 09:54:42;;;;;;;;;;;8.60;99.90;;;;;;5010353;28;19921;-38
2021/12/14 09:57:10;;;;;;;;;;;8.60;99.90;;;;;;4997072;28;19976;-39
2021/12/14 09:59:38;;;;;;;;;;;8.60;99.90;;;;;;4986690;28;20238;-40
2021/12/14 10:02:05;;;;;;;;;;;8.60;99.90;;;;;;5014416;28;19976;-39
2021/12/14 10:04:34;;;;;;;;;;;8.60;99.90;;;;;;4997275;28;19921;-39
2021/12/14 10:07:03;;;;;;;;;;;8.70;99.90;;;;;;5013911;28;19968;-39
2021/12/14 10:09:31;;;;;;;;;;;8.70;99.90;;;;;;5014561;28;19921;-39
2021/12/14 10:12:14;;;;;;;;;;;8.70;99.90;;;;;;4987763;28;19925;-40
2021/12/14 10:14:43;;;;;;;;;;;8.80;99.90;;;;;;4995030;28;20029;-39
2021/12/14 10:17:11;;;;;;;;;;;8.70;99.90;;;;;;5010948;28;19972;-39
2021/12/14 10:19:37;;;;;;;;;;;8.80;99.90;;;;;;5012935;28;19922;-41
2021/12/14 10:22:06;;;;;;;;;;;8.80;99.90;;;;;;4994633;28;20012;-39
2021/12/14 10:24:32;;;;;;;;;;;8.80;99.90;;;;;;4995565;28;19925;-39
2021/12/14 10:27:00;;;;;;;;;;;8.80;99.90;;;;;;4996234;28;20352;-40
2021/12/14 10:29:29;;;;;;;;;;;8.80;99.90;;;;;;4978051;28;19922;-39
2021/12/14 10:31:59;;;;;;;;;;;8.80;99.90;;;;;;4997101;28;20445;-40
2021/12/14 10:34:26;;;;;;;;;;;8.80;99.90;;;;;;4985868;28;19929;-40
2021/12/14 10:37:02;;;;;;;;;;;8.80;99.90;;;;;;5014126;28;19922;-39
2021/12/14 10:44:55;;;;;;;;;;;8.80;99.90;;;;;;5007281;28;19922;-40
2021/12/14 10:47:24;;;;;;;;;;;8.80;99.90;;;;;;5033259;28;19971;-40
2021/12/14 10:49:50;;;;;;;;;;;8.80;99.90;;;;;;5033713;28;19952;-40
2021/12/14 10:52:18;;;;;;;;;;;8.80;99.90;;;;;;5031950;28;19924;-40
2021/12/14 10:54:52;;;;;;;;;;;8.80;99.90;;;;;;5012133;28;19960;-41
2021/12/14 10:57:20;;;;;;;;;;;8.80;99.90;;;;;;4995340;28;19921;-40
2021/12/14 10:59:47;;;;;;;;;;;8.80;99.90;;;;;;5018788;28;20123;-41
2021/12/14 11:02:14;;;;;;;;;;;8.70;99.90;;;;;;5001612;28;19925;-40
2021/12/14 11:04:51;;;;;;;;;;;8.80;99.90;;;;;;5015707;28;19971;-41
2021/12/14 11:07:19;;;;;;;;;;;8.70;99.90;;;;;;5015408;28;20361;-40
2021/12/14 11:09:52;;;;;;;;;;;8.70;99.90;;;;;;5005332;28;19925;-40
2021/12/14 11:12:20;;;;;;;;;;;8.70;99.90;;;;;;5023799;28;20070;-40
2021/12/14 11:14:47;;;;;;;;;;;8.80;99.90;;;;;;5015526;28;19921;-41
2021/12/14 11:20:00;;;;;;;;;;;8.80;99.90;;;;;;5031004;28;19921;-40
2021/12/14 11:22:28;;;;;;;;;;;8.80;99.90;;;;;;5015146;28;20312;-41
2021/12/14 11:24:56;;;;;;;;;;;8.80;99.90;;;;;;5015978;28;19972;-39
2021/12/14 11:27:23;;;;;;;;;;;8.80;99.90;;;;;;5015508;28;19983;-39
2021/12/14 11:29:50;;;;;;;;;;;8.90;99.90;;;;;;5014285;28;19967;-44
2021/12/14 11:32:17;;;;;;;;;;;8.90;99.90;;;;;;5022020;28;19929;-39
2021/12/14 11:34:45;;;;;;;;;;;8.90;99.90;;;;;;5014496;28;20364;-41
2021/12/14 11:37:16;;;;;;;;;;;8.90;99.90;;;;;;5014157;28;19921;-40
2021/12/14 11:39:44;;;;;;;;;;;8.90;99.90;;;;;;5013562;28;19921;-39
2021/12/14 11:42:11;;;;;;;;;;;8.90;99.90;;;;;;5015223;28;19986;-40
2021/12/14 11:44:38;;;;;;;;;;;8.90;99.90;;;;;;5030685;28;19929;-43
2021/12/14 11:47:07;;;;;;;;;;;8.90;99.90;;;;;;5015105;28;20357;-39
2021/12/14 11:49:42;;;;;;;;;;;9.00;99.90;;;;;;5014823;28;19928;-39
2021/12/14 11:52:10;;;;;;;;;;;9.00;99.90;;;;;;5014683;28;19921;-41
2021/12/14 11:54:41;;;;;;;;;;;9.00;99.90;;;;;;5032603;28;19960;-40
2021/12/14 11:57:08;;;;;;;;;;;9.00;99.90;;;;;;5015078;28;20296;-42
2021/12/14 11:59:35;;;;;;;;;;;9.00;99.90;;;;;;5014814;28;19979;-40
2021/12/14 12:02:01;;;;;;;;;;;9.00;99.90;;;;;;5031534;28;19928;-41
2021/12/14 12:04:34;;;;;;;;;;;9.00;99.90;;;;;;5013098;28;19975;-40
2021/12/14 12:09:48;;;;;;;;;;;9.00;99.90;;;;;;5032256;28;19928;-41
2021/12/14 12:12:20;;;;;;;;;;;9.00;99.90;;;;;;5031780;28;19924;-40
2021/12/14 12:14:48;;;;;;;;;;;9.00;99.90;;;;;;5014553;28;19979;-40
2021/12/14 12:17:23;;;;;;;;;;;9.00;99.90;;;;;;5014419;28;19995;-41
2021/12/14 12:19:56;;;;;;;;;;;9.00;99.90;;;;;;5014562;28;20339;-42
2021/12/14 12:22:23;;;;;;;;;;;9.00;99.90;;;;;;5014887;28;19972;-40
2021/12/14 12:24:52;;;;;;;;;;;9.00;99.90;;;;;;5032125;28;19975;-42
2021/12/14 12:27:23;;;;;;;;;;;9.00;99.90;;;;;;5022643;28;19921;-40
2021/12/14 12:30:03;;;;;;;;;;;9.00;99.90;;;;;;5011938;28;19921;-41
2021/12/14 12:32:30;;;;;;;;;;;9.10;99.90;;;;;;5011950;28;19975;-40
2021/12/14 12:34:57;;;;;;;;;;;9.00;99.90;;;;;;5013760;28;19932;-41
2021/12/14 12:37:34;;;;;;;;;;;9.00;99.90;;;;;;5013829;28;19968;-40
2021/12/14 12:40:02;;;;;;;;;;;9.10;99.90;;;;;;4999563;28;19928;-41
2021/12/14 12:42:29;;;;;;;;;;;9.00;99.90;;;;;;5013440;28;19956;-41
2021/12/14 12:44:56;;;;;;;;;;;9.00;99.90;;;;;;5031112;28;19921;-40
2021/12/14 12:47:23;;;;;;;;;;;9.10;99.90;;;;;;5014103;28;19968;-40
2021/12/14 12:49:50;;;;;;;;;;;9.10;99.90;;;;;;5013026;28;19979;-43
2021/12/14 12:52:17;;;;;;;;;;;9.10;99.90;;;;;;5030167;28;19984;-41
2021/12/14 12:54:45;;;;;;;;;;;9.10;99.90;;;;;;5010467;28;19961;-40
2021/12/14 12:57:32;;;;;;;;;;;9.00;99.90;;;;;;4994636;28;20025;-40
2021/12/14 13:00:09;;;;;;;;;;;9.10;99.90;;;;;;4995062;28;20008;-40
2021/12/14 13:02:36;;;;;;;;;;;9.10;99.90;;;;;;4995070;28;19926;-41
2021/12/14 13:05:05;;;;;;;;;;;9.20;99.90;;;;;;5006391;28;19921;-41
2021/12/14 13:07:33;;;;;;;;;;;9.10;99.90;;;;;;5013868;28;19921;-40
2021/12/14 13:10:15;;;;;;;;;;;9.10;99.90;;;;;;5031075;28;20361;-40
2021/12/14 13:12:44;;;;;;;;;;;9.20;99.90;;;;;;4997473;28;19968;-41
2021/12/14 13:15:30;;;;;;;;;;;9.20;99.90;;;;;;5014159;28;19928;-41
2021/12/14 13:18:11;;;;;;;;;;;9.20;99.90;;;;;;5012091;28;19921;-42
2021/12/14 13:20:38;;;;;;;;;;;9.20;99.90;;;;;;5015067;28;20254;-40
2021/12/14 13:23:05;;;;;;;;;;;9.20;99.90;;;;;;5015235;28;19921;-41
2021/12/14 13:25:35;;;;;;;;;;;9.20;99.90;;;;;;5015201;28;19925;-40
2021/12/14 13:28:03;;;;;;;;;;;9.20;99.90;;;;;;5015288;28;20280;-40
2021/12/14 13:30:30;;;;;;;;;;;9.20;99.90;;;;;;5015721;28;20348;-41
2021/12/14 13:32:57;;;;;;;;;;;9.20;99.90;;;;;;5025760;28;19925;-41
2021/12/14 13:35:28;;;;;;;;;;;9.20;99.90;;;;;;5034924;28;19979;-40
2021/12/14 13:37:56;;;;;;;;;;;9.30;99.90;;;;;;5034784;28;20355;-40
2021/12/14 13:40:24;;;;;;;;;;;9.30;99.90;;;;;;5016125;28;19921;-42
2021/12/14 13:42:52;;;;;;;;;;;9.30;99.90;;;;;;5004467;28;19974;-40
2021/12/14 13:45:21;;;;;;;;;;;9.30;99.90;;;;;;5033826;28;19979;-41
2021/12/14 13:47:48;;;;;;;;;;;9.30;99.90;;;;;;5017324;28;19925;-41
2021/12/14 13:50:16;;;;;;;;;;;9.30;99.90;;;;;;5034862;28;19967;-40
2021/12/14 13:52:43;;;;;;;;;;;9.30;99.90;;;;;;5030301;28;20336;-41
2021/12/14 13:55:28;;;;;;;;;;;9.30;99.90;;;;;;5023770;28;20007;-41
2021/12/14 13:57:56;;;;;;;;;;;9.30;99.90;;;;;;5033021;28;20015;-44
2021/12/14 14:00:26;;;;;;;;;;;9.30;99.90;;;;;;5006019;28;19971;-41
2021/12/14 14:02:53;;;;;;;;;;;9.30;99.90;;;;;;5017356;28;19925;-40
2021/12/14 14:05:21;;;;;;;;;;;9.30;99.90;;;;;;5013769;28;20300;-40
2021/12/14 14:07:49;;;;;;;;;;;9.30;99.90;;;;;;5005507;28;19925;-41
2021/12/14 14:10:16;;;;;;;;;;;9.30;99.90;;;;;;5030307;28;19935;-42
2021/12/14 14:12:44;;;;;;;;;;;9.30;99.90;;;;;;4997566;28;19957;-41
2021/12/14 14:15:15;;;;;;;;;;;9.30;99.90;;;;;;5010128;28;20344;-41
2021/12/14 14:17:47;;;;;;;;;;;9.30;99.90;;;;;;5005955;28;20838;-42
2021/12/14 14:20:15;;;;;;;;;;;9.30;99.90;;;;;;5017249;28;20019;-42
2021/12/14 14:22:42;;;;;;;;;;;9.30;99.90;;;;;;5031502;28;20399;-41
2021/12/14 14:25:10;;;;;;;;;;;9.30;99.90;;;;;;5020535;28;20317;-41
2021/12/14 14:27:39;;;;;;;;;;;9.30;99.90;;;;;;5016012;28;20324;-43
2021/12/14 14:30:28;;;;;;;;;;;9.40;99.90;;;;;;5015370;28;20340;-41
2021/12/14 14:33:08;;;;;;;;;;;9.30;99.90;;;;;;5032572;28;19983;-42
2021/12/14 14:35:42;;;;;;;;;;;9.40;99.90;;;;;;5015108;28;19928;-42
2021/12/14 14:38:30;;;;;;;;;;;9.30;99.90;;;;;;4997971;28;20019;-43
2021/12/14 14:40:57;;;;;;;;;;;9.40;99.90;;;;;;5009287;28;19925;-41
2021/12/14 14:43:29;;;;;;;;;;;9.30;99.90;;;;;;5033071;28;19921;-41
2021/12/14 14:45:56;;;;;;;;;;;9.40;99.90;;;;;;5032619;28;19921;-41
2021/12/14 14:48:25;;;;;;;;;;;9.30;99.90;;;;;;5033547;28;20396;-40
2021/12/14 14:50:52;;;;;;;;;;;9.30;99.90;;;;;;5034353;28;20016;-41
2021/12/14 14:53:20;;;;;;;;;;;9.40;99.90;;;;;;5034506;28;20417;-41
2021/12/14 14:55:47;;;;;;;;;;;9.30;99.90;;;;;;5016731;28;19956;-40
2021/12/14 14:58:15;;;;;;;;;;;9.40;99.90;;;;;;5014859;28;19921;-40
2021/12/14 15:00:52;;;;;;;;;;;9.30;99.90;;;;;;5016080;28;19959;-40
2021/12/14 15:03:21;;;;;;;;;;;9.30;99.90;;;;;;5015215;28;19929;-45
2021/12/14 15:05:50;;;;;;;;;;;9.30;99.90;;;;;;5031662;28;19927;-41
2021/12/14 15:08:25;;;;;;;;;;;9.30;99.90;;;;;;5007449;28;19921;-41